createdAt,value
2023-04-05T00:00:20.473Z,4.87
2023-04-05T00:02:53.100Z,3.73
2023-04-05T00:05:29.623Z,3.43
2023-04-05T00:08:03.098Z,5.03
2023-04-05T00:10:34.572Z,2.63
2023-04-05T00:13:04.379Z,4.97
2023-04-05T00:15:34.424Z,3.43
2023-04-05T00:18:06.940Z,5.20
2023-04-05T00:20:37.598Z,4.13
2023-04-05T00:23:09.734Z,3.53
2023-04-05T00:25:39.602Z,4.50
2023-04-05T00:28:09.584Z,4.33
2023-04-05T00:30:39.493Z,5.07
2023-04-05T00:33:12.178Z,5.37
2023-04-05T00:35:42.026Z,4.37
2023-04-05T00:38:11.852Z,5.63
2023-04-05T00:40:41.860Z,5.33
2023-04-05T00:43:14.162Z,6.00
2023-04-05T00:45:45.257Z,5.57
2023-04-05T00:48:17.890Z,6.87
2023-04-05T00:50:49.354Z,3.73
2023-04-05T00:53:19.654Z,5.47
2023-04-05T00:55:50.978Z,4.27
2023-04-05T00:58:22.463Z,6.37
2023-04-05T01:01:02.379Z,4.30
2023-04-05T01:03:37.328Z,4.80
2023-04-05T01:06:22.340Z,5.63
2023-04-05T01:09:08.696Z,5.80
2023-04-05T01:11:42.270Z,5.03
2023-04-05T01:14:12.130Z,5.47
2023-04-05T01:16:41.950Z,7.07
2023-04-05T01:19:14.595Z,6.73
2023-04-05T01:22:14.354Z,5.17
2023-04-05T01:25:03.150Z,4.80
2023-04-05T01:27:49.753Z,6.47
2023-04-05T01:30:31.372Z,8.63
2023-04-05T01:33:11.568Z,5.97
2023-04-05T01:35:47.717Z,8.47
2023-04-05T01:38:25.470Z,5.93
2023-04-05T01:40:56.397Z,7.77
2023-04-05T01:43:26.308Z,7.40
2023-04-05T01:45:58.768Z,6.00
2023-04-05T01:48:30.129Z,7.27
2023-04-05T01:51:00.053Z,5.97
2023-04-05T01:53:31.274Z,6.43
2023-04-05T01:56:04.175Z,6.03
2023-04-05T01:58:34.070Z,4.67
2023-04-05T02:01:06.674Z,4.57
2023-04-05T02:03:36.643Z,4.33
2023-04-05T02:06:07.908Z,4.87
2023-04-05T02:08:37.789Z,5.43
2023-04-05T02:11:07.717Z,4.47
2023-04-05T02:13:37.701Z,4.90
2023-04-05T02:16:10.145Z,5.63
2023-04-05T02:18:40.490Z,4.47
2023-04-05T02:21:17.474Z,5.80
2023-04-05T02:23:47.323Z,4.90
2023-04-05T02:26:17.211Z,4.83
2023-04-05T02:28:47.421Z,3.53
2023-04-05T02:31:21.444Z,5.37
2023-04-05T02:33:51.375Z,4.57
2023-04-05T02:36:24.932Z,5.57
2023-04-05T02:38:57.595Z,5.43
2023-04-05T02:41:27.598Z,5.07
2023-04-05T02:43:57.442Z,4.83
2023-04-05T02:46:29.890Z,5.50
2023-04-05T02:49:00.034Z,4.60
2023-04-05T02:51:29.851Z,7.23
2023-04-05T02:53:59.695Z,5.03
2023-04-05T02:56:29.524Z,5.03
2023-04-05T02:58:59.610Z,6.17
2023-04-05T03:01:33.128Z,5.33
2023-04-05T03:04:03.909Z,4.50
2023-04-05T03:06:34.223Z,6.50
2023-04-05T03:09:04.913Z,6.60
2023-04-05T03:11:34.776Z,7.10
2023-04-05T03:14:04.613Z,6.23
2023-04-05T03:16:40.199Z,5.43
2023-04-05T03:19:10.257Z,7.20
2023-04-05T03:21:41.329Z,7.40
2023-04-05T03:24:11.619Z,4.90
2023-04-05T03:26:42.326Z,7.53
2023-04-05T03:29:12.232Z,6.70
2023-04-05T03:31:44.762Z,6.43
2023-04-05T03:34:14.752Z,6.77
2023-04-05T03:36:48.420Z,5.07
2023-04-05T03:39:18.254Z,6.93
2023-04-05T03:41:48.101Z,6.40
2023-04-05T03:44:17.949Z,6.90
2023-04-05T03:46:53.566Z,5.53
2023-04-05T03:49:23.410Z,7.43
2023-04-05T03:51:53.300Z,7.63
2023-04-05T03:54:23.113Z,9.00
2023-04-05T03:56:53.020Z,8.77
2023-04-05T03:59:25.858Z,8.87
2023-04-05T04:01:58.410Z,9.90
2023-04-05T04:04:28.475Z,8.67
2023-04-05T04:06:59.230Z,7.13
2023-04-05T04:09:30.826Z,10.43
2023-04-05T04:12:01.263Z,9.37
2023-04-05T04:14:31.263Z,9.40
2023-04-05T04:17:03.886Z,7.67
2023-04-05T04:19:33.914Z,10.03
2023-04-05T04:22:04.647Z,7.80
2023-04-05T04:24:34.565Z,7.57
2023-04-05T04:27:07.083Z,8.60
2023-04-05T04:29:46.828Z,7.60
2023-04-05T04:32:22.807Z,8.80
2023-04-05T04:34:56.114Z,8.30
2023-04-05T04:37:30.589Z,8.23
2023-04-05T04:40:06.724Z,9.70
2023-04-05T04:42:39.396Z,10.33
2023-04-05T04:45:13.302Z,8.40
2023-04-05T04:47:46.221Z,9.77
2023-04-05T04:50:17.254Z,9.17
2023-04-05T04:52:47.183Z,11.03
2023-04-05T04:55:17.158Z,9.77
2023-04-05T04:57:47.208Z,11.33
2023-04-05T05:00:18.451Z,10.83
2023-04-05T05:02:51.471Z,8.23
2023-04-05T05:05:22.924Z,8.30
2023-04-05T05:07:55.333Z,9.77
2023-04-05T05:10:25.136Z,9.07
2023-04-05T05:12:55.026Z,11.03
2023-04-05T05:15:24.941Z,9.27
2023-04-05T05:17:59.432Z,8.73
2023-04-05T05:20:30.377Z,8.27
2023-04-05T05:23:02.654Z,9.37
2023-04-05T05:25:32.619Z,8.13
2023-04-05T05:28:02.531Z,9.47
2023-04-05T05:30:33.734Z,8.63
2023-04-05T05:33:06.280Z,7.63
2023-04-05T05:35:38.264Z,8.60
2023-04-05T05:38:10.221Z,7.67
2023-04-05T05:40:43.512Z,9.43
2023-04-05T05:43:13.589Z,9.63
2023-04-05T05:45:43.420Z,8.93
2023-04-05T05:48:16.346Z,11.40
2023-04-05T05:50:49.049Z,11.60
2023-04-05T05:53:19.117Z,11.73
2023-04-05T05:55:49.001Z,12.83
2023-04-05T05:58:18.950Z,10.03
2023-04-05T06:00:50.722Z,10.27
2023-04-05T06:03:26.604Z,10.67
2023-04-05T06:05:57.279Z,12.47
2023-04-05T06:08:27.937Z,11.23
2023-04-05T06:10:58.684Z,11.80
2023-04-05T06:13:28.497Z,13.43
2023-04-05T06:15:58.333Z,12.70
2023-04-05T06:18:30.807Z,12.90
2023-04-05T06:21:00.665Z,11.00
2023-04-05T06:23:30.593Z,11.27
2023-04-05T06:26:00.570Z,10.43
2023-04-05T06:28:31.843Z,11.23
2023-04-05T06:31:04.498Z,10.47
2023-04-05T06:33:37.032Z,10.67
2023-04-05T06:36:07.340Z,12.30
2023-04-05T06:38:37.219Z,9.00
2023-04-05T06:41:07.457Z,10.87
2023-04-05T06:43:37.393Z,11.97
2023-04-05T06:46:09.059Z,12.20
2023-04-05T06:48:42.492Z,11.83
2023-04-05T06:51:12.617Z,10.23
2023-04-05T06:53:42.489Z,9.40
2023-04-05T06:56:12.648Z,11.07
2023-04-05T06:58:42.640Z,10.77
2023-04-05T07:01:12.612Z,12.33
2023-04-05T07:03:47.403Z,11.50
2023-04-05T07:06:17.390Z,11.43
2023-04-05T07:08:47.243Z,11.10
2023-04-05T07:11:17.114Z,10.97
2023-04-05T07:13:46.923Z,12.17
2023-04-05T07:16:18.432Z,12.83
2023-04-05T07:18:52.187Z,9.97
2023-04-05T07:21:22.008Z,10.47
2023-04-05T07:23:53.879Z,11.97
2023-04-05T07:26:23.703Z,10.07
2023-04-05T07:28:57.488Z,10.53
2023-04-05T07:31:27.686Z,11.53
2023-04-05T07:34:00.480Z,10.60
2023-04-05T07:36:31.005Z,12.20
2023-04-05T07:39:01.499Z,11.03
2023-04-05T07:41:35.651Z,11.47
2023-04-05T07:44:05.575Z,11.33
2023-04-05T07:46:36.226Z,8.37
2023-04-05T07:49:08.781Z,10.63
2023-04-05T07:51:38.704Z,10.27
2023-04-05T07:54:08.834Z,8.87
2023-04-05T07:56:40.273Z,8.80
2023-04-05T07:59:10.460Z,9.10
2023-04-05T08:01:40.995Z,11.97
2023-04-05T08:04:18.388Z,10.33
2023-04-05T08:06:48.728Z,11.47
2023-04-05T08:09:18.589Z,10.50
2023-04-05T08:11:49.001Z,8.77
2023-04-05T08:14:22.023Z,9.97
2023-04-05T08:16:52.225Z,7.77
2023-04-05T08:19:24.753Z,9.30
2023-04-05T08:21:56.388Z,8.77
2023-04-05T08:24:26.452Z,10.37
2023-04-05T08:26:56.563Z,9.03
2023-04-05T08:29:26.593Z,7.73
2023-04-05T08:31:59.123Z,8.67
2023-04-05T08:34:34.701Z,7.17
2023-04-05T08:37:04.620Z,6.27
2023-04-05T08:39:34.500Z,6.30
2023-04-05T08:42:12.288Z,9.13
2023-04-05T08:44:48.070Z,7.57
2023-04-05T08:47:22.093Z,7.35
2023-04-05T08:49:54.608Z,8.98
2023-04-05T08:52:24.579Z,6.80
2023-04-05T08:54:57.254Z,7.68
2023-04-05T08:57:29.959Z,9.63
2023-04-05T09:00:02.262Z,7.50
2023-04-05T09:02:33.018Z,8.27
2023-04-05T09:05:06.975Z,6.40
2023-04-05T09:07:38.406Z,7.83
2023-04-05T09:10:10.268Z,6.33
2023-04-05T09:12:40.553Z,9.27
2023-04-05T09:15:11.404Z,7.63
2023-04-05T09:17:42.512Z,5.90
2023-04-05T09:20:14.997Z,7.13
2023-04-05T09:22:48.055Z,9.73
2023-04-05T09:25:38.516Z,7.03
2023-04-05T09:28:09.117Z,9.47
2023-04-05T09:30:43.098Z,6.17
2023-04-05T09:33:13.296Z,6.50
2023-04-05T09:35:45.906Z,7.27
2023-04-05T09:38:15.819Z,7.73
2023-04-05T09:40:47.381Z,7.40
2023-04-05T09:43:37.768Z,7.20
2023-04-05T09:46:07.799Z,4.70
2023-04-05T09:48:49.574Z,6.43
2023-04-05T09:51:22.292Z,6.70
2023-04-05T09:54:02.620Z,6.87
2023-04-05T09:56:34.468Z,4.93
2023-04-05T09:59:05.141Z,5.20
2023-04-05T10:01:39.922Z,6.23
2023-04-05T10:04:11.385Z,7.10
2023-04-05T10:06:44.951Z,5.43
2023-04-05T10:09:17.689Z,6.37
2023-04-05T10:11:51.747Z,5.30
2023-04-05T10:14:22.679Z,6.40
2023-04-05T10:17:02.369Z,5.20
2023-04-05T10:19:40.006Z,5.37
2023-04-05T10:22:20.965Z,5.97
2023-04-05T10:24:57.695Z,4.40
2023-04-05T10:27:33.738Z,4.13
2023-04-05T10:30:09.445Z,8.43
2023-04-05T10:32:52.218Z,5.77
2023-04-05T10:35:27.455Z,6.33
2023-04-05T10:38:15.000Z,6.13
2023-04-05T10:40:49.487Z,5.00
2023-04-05T10:43:24.718Z,9.40
2023-04-05T10:45:58.307Z,5.80
2023-04-05T10:48:41.107Z,5.97
2023-04-05T10:51:11.098Z,5.53
2023-04-05T10:53:44.465Z,8.37
2023-04-05T10:56:18.323Z,6.20
2023-04-05T10:58:49.679Z,7.83
2023-04-05T11:01:21.852Z,8.47
2023-04-05T11:03:53.999Z,7.60
2023-04-05T11:06:32.446Z,8.23
2023-04-05T11:09:15.608Z,8.43
2023-04-05T11:11:47.060Z,8.00
2023-04-05T11:14:26.001Z,6.97
2023-04-05T11:17:02.124Z,5.27
2023-04-05T11:19:53.274Z,5.83
2023-04-05T11:22:30.402Z,6.33
2023-04-05T11:25:04.795Z,6.73
2023-04-05T11:27:37.805Z,7.53
2023-04-05T11:30:09.483Z,6.03
2023-04-05T11:32:43.590Z,5.97
2023-04-05T11:35:18.020Z,5.83
2023-04-05T11:38:11.067Z,6.50
2023-04-05T11:40:44.201Z,6.53
2023-04-05T11:43:15.230Z,7.25
2023-04-05T11:45:47.250Z,6.47
2023-04-05T11:48:17.286Z,5.50
2023-04-05T11:50:49.644Z,6.57
2023-04-05T11:53:21.504Z,7.37
2023-04-05T11:55:55.651Z,6.13
2023-04-05T11:58:28.736Z,6.22
2023-04-05T12:01:03.101Z,4.65
2023-04-05T12:03:34.358Z,6.82
2023-04-05T12:06:05.610Z,7.10
2023-04-05T12:08:43.624Z,6.80
2023-04-05T12:11:16.038Z,6.53
2023-04-05T12:13:48.404Z,4.87
2023-04-05T12:16:19.127Z,5.97
2023-04-05T12:18:56.275Z,5.70
2023-04-05T12:21:27.664Z,5.90
2023-04-05T12:23:57.629Z,4.60
2023-04-05T12:26:34.434Z,5.33
2023-04-05T12:29:07.449Z,5.87
2023-04-05T12:31:43.569Z,7.07
2023-04-05T12:34:14.431Z,6.63
2023-04-05T12:36:48.861Z,5.87
2023-04-05T12:39:20.134Z,7.40
2023-04-05T12:41:59.917Z,6.37
2023-04-05T12:44:35.470Z,8.80
2023-04-05T12:47:09.448Z,5.63
2023-04-05T12:49:41.133Z,7.10
2023-04-05T12:52:11.837Z,5.47
2023-04-05T12:54:42.036Z,9.27
2023-04-05T12:57:16.872Z,6.27
2023-04-05T12:59:46.709Z,5.50
2023-04-05T13:02:18.180Z,9.17
2023-04-05T13:04:48.071Z,8.17
2023-04-05T13:07:18.635Z,6.80
2023-04-05T13:09:48.490Z,6.57
2023-04-05T13:12:21.027Z,5.37
2023-04-05T13:14:50.826Z,11.20
2023-04-05T13:17:20.640Z,7.83
2023-04-05T13:19:50.472Z,5.10
2023-04-05T13:22:20.333Z,4.50
2023-04-05T13:24:50.161Z,6.37
2023-04-05T13:27:22.921Z,6.23
2023-04-05T13:29:52.839Z,4.57
2023-04-05T13:32:22.741Z,5.37
2023-04-05T13:34:52.571Z,5.10
2023-04-05T13:37:22.614Z,6.67
2023-04-05T13:39:53.179Z,5.30
2023-04-05T13:42:26.187Z,5.50
2023-04-05T13:44:55.988Z,5.47
2023-04-05T13:47:25.915Z,7.27
2023-04-05T13:49:55.795Z,5.47
2023-04-05T13:52:26.144Z,6.07
2023-04-05T13:55:02.169Z,6.78
2023-04-05T13:57:35.994Z,6.45
2023-04-05T14:00:06.626Z,7.47
2023-04-05T14:02:36.938Z,3.40
2023-04-05T14:05:07.959Z,8.40
2023-04-05T14:07:38.640Z,5.78
2023-04-05T14:10:09.258Z,5.07
2023-04-05T14:12:41.787Z,5.70
2023-04-05T14:15:12.203Z,6.33
2023-04-05T14:17:42.113Z,6.85
2023-04-05T14:20:12.794Z,5.03
2023-04-05T14:22:42.644Z,4.60
2023-04-05T14:25:13.014Z,8.27
2023-04-05T14:27:45.646Z,5.17
2023-04-05T14:30:16.732Z,5.83
2023-04-05T14:32:47.262Z,7.73
2023-04-05T14:35:17.106Z,5.90
2023-04-05T14:37:46.975Z,6.37
2023-04-05T14:40:17.141Z,6.23
2023-04-05T14:42:50.397Z,5.47
2023-04-05T14:45:21.064Z,5.40
2023-04-05T14:47:51.052Z,8.70
2023-04-05T14:50:21.052Z,5.80
2023-04-05T14:52:51.177Z,6.00
2023-04-05T14:55:21.318Z,5.87
2023-04-05T14:57:53.998Z,5.33
2023-04-05T15:00:24.261Z,5.03
2023-04-05T15:02:59.261Z,6.33
2023-04-05T15:05:29.387Z,9.30
2023-04-05T15:07:59.221Z,8.97
2023-04-05T15:10:29.879Z,7.13
2023-04-05T15:13:02.452Z,7.30
2023-04-05T15:15:32.965Z,5.47
2023-04-05T15:18:02.805Z,6.27
2023-04-05T15:20:33.563Z,5.67
2023-04-05T15:23:03.721Z,6.47
2023-04-05T15:25:33.578Z,4.90
2023-04-05T15:28:07.027Z,6.37
2023-04-05T15:30:37.830Z,5.53
2023-04-05T15:33:07.797Z,5.20
2023-04-05T15:35:38.950Z,5.20
2023-04-05T15:38:08.794Z,4.77
2023-04-05T15:40:39.969Z,4.72
2023-04-05T15:43:12.805Z,4.60
2023-04-05T15:45:43.124Z,4.37
2023-04-05T15:48:14.030Z,5.37
2023-04-05T15:50:44.513Z,7.60
2023-04-05T15:53:15.906Z,6.73
2023-04-05T15:55:45.887Z,5.70
2023-04-05T15:58:18.252Z,5.53
2023-04-05T16:00:48.121Z,6.47
2023-04-05T16:03:18.236Z,5.27
2023-04-05T16:05:51.117Z,5.38
2023-04-05T16:08:20.973Z,6.47
2023-04-05T16:10:50.964Z,8.77
2023-04-05T16:13:23.449Z,7.37
2023-04-05T16:15:55.002Z,6.50
2023-04-05T16:18:26.212Z,7.27
2023-04-05T16:20:56.091Z,7.70
2023-04-05T16:23:25.943Z,6.70
2023-04-05T16:25:55.971Z,8.33
2023-04-05T16:28:28.404Z,7.83
2023-04-05T16:31:00.231Z,6.47
2023-04-05T16:33:30.138Z,6.77
2023-04-05T16:36:00.100Z,6.43
2023-04-05T16:38:30.017Z,5.63
2023-04-05T16:41:02.477Z,4.77
2023-04-05T16:43:35.259Z,7.20
2023-04-05T16:46:05.192Z,6.77
2023-04-05T16:48:35.141Z,6.33
2023-04-05T16:51:06.960Z,6.83
2023-04-05T16:53:37.166Z,5.33
2023-04-05T16:56:07.260Z,6.17
2023-04-05T16:58:39.653Z,6.63
2023-04-05T17:01:09.687Z,6.13
2023-04-05T17:03:47.266Z,7.93
2023-04-05T17:06:17.531Z,6.77
2023-04-05T17:08:47.368Z,5.73
2023-04-05T17:11:20.135Z,7.27
2023-04-05T17:13:52.629Z,5.00
2023-04-05T17:16:22.703Z,6.03
2023-04-05T17:18:52.675Z,5.50
2023-04-05T17:21:23.152Z,7.57
2023-04-05T17:23:53.070Z,6.00
2023-04-05T17:26:23.439Z,7.10
2023-04-05T17:28:55.934Z,9.10
2023-04-05T17:31:25.854Z,5.30
2023-04-05T17:33:55.709Z,6.63
2023-04-05T17:36:26.332Z,9.70
2023-04-05T17:38:56.163Z,6.40
2023-04-05T17:41:27.643Z,7.23
2023-04-05T17:44:00.185Z,8.13
2023-04-05T17:46:40.196Z,7.53
2023-04-05T17:49:14.407Z,6.77
2023-04-05T17:51:44.268Z,10.00
2023-04-05T17:54:17.278Z,7.40
2023-04-05T17:56:47.278Z,9.33
2023-04-05T17:59:19.850Z,8.97
2023-04-05T18:01:54.008Z,9.53
2023-04-05T18:04:24.902Z,12.40
2023-04-05T18:06:54.842Z,9.73
2023-04-05T18:09:24.648Z,9.80
2023-04-05T18:11:54.451Z,8.10
2023-04-05T18:14:27.046Z,11.93
2023-04-05T18:16:56.916Z,9.60
2023-04-05T18:19:26.896Z,9.33
2023-04-05T18:21:56.690Z,8.03
2023-04-05T18:24:26.666Z,9.50
2023-04-05T18:26:56.629Z,10.60
2023-04-05T18:29:30.941Z,8.03
2023-04-05T18:32:00.908Z,9.57
2023-04-05T18:34:30.989Z,8.53
2023-04-05T18:37:00.904Z,9.53
2023-04-05T18:39:31.144Z,9.07
2023-04-05T18:42:01.184Z,8.67
2023-04-05T18:44:33.928Z,7.97
2023-04-05T18:47:05.066Z,10.10
2023-04-05T18:49:34.951Z,12.90
2023-04-05T18:52:04.813Z,12.03
2023-04-05T18:54:38.538Z,11.83
2023-04-05T18:57:10.116Z,9.20
2023-04-05T18:59:42.586Z,8.73
2023-04-05T19:02:15.207Z,8.70
2023-04-05T19:04:45.079Z,10.27
2023-04-05T19:07:14.907Z,9.77
2023-04-05T19:09:45.129Z,8.90
2023-04-05T19:12:14.936Z,10.60
2023-04-05T19:14:49.907Z,9.93
2023-04-05T19:17:19.741Z,8.43
2023-04-05T19:19:49.569Z,9.70
2023-04-05T19:22:19.370Z,7.97
2023-04-05T19:24:49.171Z,9.37
2023-04-05T19:27:20.530Z,9.73
2023-04-05T19:29:52.998Z,9.80
2023-04-05T19:32:23.778Z,10.83
2023-04-05T19:34:53.679Z,10.87
2023-04-05T19:37:23.538Z,11.80
2023-04-05T19:39:57.570Z,11.33
2023-04-05T19:42:27.372Z,8.27
2023-04-05T19:45:01.251Z,9.13
2023-04-05T19:47:31.662Z,9.70
2023-04-05T19:50:12.758Z,7.43
2023-04-05T19:52:45.621Z,10.60
2023-04-05T19:55:31.386Z,9.47
2023-04-05T19:58:01.860Z,11.20
2023-04-05T20:00:40.578Z,9.80
2023-04-05T20:03:30.531Z,10.93
2023-04-05T20:06:11.868Z,8.57
2023-04-05T20:08:43.459Z,8.53
2023-04-05T20:11:15.685Z,8.23
2023-04-05T20:13:49.625Z,10.90
2023-04-05T20:16:28.518Z,9.07
2023-04-05T20:19:00.836Z,8.57
2023-04-05T20:21:31.172Z,8.93
2023-04-05T20:24:02.183Z,8.33
2023-04-05T20:26:33.085Z,7.87
2023-04-05T20:29:04.294Z,7.50
2023-04-05T20:31:39.219Z,8.77
2023-04-05T20:34:13.500Z,8.83
2023-04-05T20:36:50.996Z,9.47
2023-04-05T20:39:23.777Z,7.73
2023-04-05T20:41:53.651Z,8.40
2023-04-05T20:44:23.480Z,9.83
2023-04-05T20:46:58.374Z,8.10
2023-04-05T20:49:28.382Z,9.80
2023-04-05T20:51:58.234Z,9.00
2023-04-05T20:54:29.752Z,9.00
2023-04-05T20:56:59.588Z,12.50
2023-04-05T20:59:29.447Z,10.13
2023-04-05T21:02:01.964Z,9.80
2023-04-05T21:04:31.873Z,9.63
2023-04-05T21:07:01.943Z,8.90
2023-04-05T21:09:31.821Z,9.77
2023-04-05T21:12:01.664Z,9.03
2023-04-05T21:14:31.507Z,9.33
2023-04-05T21:17:04.415Z,10.33
2023-04-05T21:19:34.297Z,10.43
2023-04-05T21:22:04.165Z,7.37
2023-04-05T21:24:33.982Z,9.17
2023-04-05T21:27:03.772Z,9.13
2023-04-05T21:29:33.592Z,9.50
2023-04-05T21:32:06.093Z,8.00
2023-04-05T21:34:35.918Z,10.03
2023-04-05T21:37:05.760Z,11.17
2023-04-05T21:39:35.713Z,10.63
2023-04-05T21:42:05.638Z,10.87
2023-04-05T21:44:35.489Z,9.37
2023-04-05T21:47:08.068Z,7.97
2023-04-05T21:49:37.980Z,7.03
2023-04-05T21:52:08.055Z,11.47
2023-04-05T21:54:37.863Z,7.83
2023-04-05T21:57:07.661Z,7.20
2023-04-05T21:59:37.601Z,7.67
2023-04-05T22:02:12.348Z,8.77
2023-04-05T22:04:42.504Z,7.53
2023-04-05T22:07:12.468Z,6.73
2023-04-05T22:09:45.369Z,7.97
2023-04-05T22:12:15.564Z,7.57
2023-04-05T22:14:45.410Z,7.87
2023-04-05T22:17:18.681Z,8.97
2023-04-05T22:19:51.112Z,6.97
2023-04-05T22:22:22.738Z,8.00
2023-04-05T22:24:52.551Z,7.70
2023-04-05T22:27:22.402Z,7.07
2023-04-05T22:29:54.548Z,6.67
2023-04-05T22:32:28.596Z,7.50
2023-04-05T22:34:58.684Z,8.23
2023-04-05T22:37:35.763Z,7.90
2023-04-05T22:40:06.530Z,8.13
2023-04-05T22:42:37.142Z,8.80
2023-04-05T22:45:07.656Z,7.13
2023-04-05T22:47:40.114Z,7.73
2023-04-05T22:50:11.270Z,8.70
2023-04-05T22:52:41.434Z,7.47
2023-04-05T22:55:12.297Z,8.53
2023-04-05T22:57:42.261Z,7.40
2023-04-05T23:00:13.256Z,7.80
2023-04-05T23:02:46.646Z,7.20
2023-04-05T23:05:16.590Z,8.17
2023-04-05T23:07:46.393Z,7.77
2023-04-05T23:10:16.492Z,7.67
2023-04-05T23:12:47.386Z,7.97
2023-04-05T23:15:17.629Z,7.87
2023-04-05T23:17:50.599Z,7.73
2023-04-05T23:20:20.575Z,10.20
2023-04-05T23:22:50.462Z,9.13
2023-04-05T23:25:20.273Z,8.67
2023-04-05T23:27:50.102Z,7.90
2023-04-05T23:30:20.018Z,8.93
2023-04-05T23:32:52.744Z,10.87
2023-04-05T23:35:22.582Z,9.87
2023-04-05T23:37:52.403Z,9.40
2023-04-05T23:40:22.451Z,9.37
2023-04-05T23:42:53.535Z,7.53
2023-04-05T23:45:23.392Z,7.87
2023-04-05T23:47:55.881Z,8.70
2023-04-05T23:50:26.514Z,9.57
2023-04-05T23:52:56.720Z,10.03
2023-04-05T23:55:26.695Z,8.20
2023-04-05T23:57:58.030Z,9.27
